createdAt,value
2022-11-24T00:01:37.202Z,5.20
2022-11-24T00:04:04.872Z,5.05
2022-11-24T00:06:32.128Z,5.13
2022-11-24T00:08:59.212Z,5.09
2022-11-24T00:11:27.634Z,5.18
2022-11-24T00:13:54.462Z,5.20
2022-11-24T00:16:25.733Z,5.15
2022-11-24T00:18:53.144Z,5.04
2022-11-24T00:21:20.048Z,5.13
2022-11-24T00:23:46.880Z,4.97
2022-11-24T00:26:15.063Z,5.09
2022-11-24T00:28:42.442Z,4.90
2022-11-24T00:31:17.436Z,4.86
2022-11-24T00:33:53.947Z,4.86
2022-11-24T00:36:21.104Z,4.78
2022-11-24T00:38:47.811Z,4.72
2022-11-24T00:41:14.401Z,4.86
2022-11-24T00:43:42.819Z,4.88
2022-11-24T00:46:09.245Z,5.02
2022-11-24T00:48:35.773Z,4.90
2022-11-24T00:51:03.460Z,5.09
2022-11-24T00:53:30.335Z,5.16
2022-11-24T00:55:56.733Z,5.10
2022-11-24T00:58:24.492Z,5.19
2022-11-24T01:00:51.311Z,5.22
2022-11-24T01:03:18.880Z,5.18
2022-11-24T01:05:45.640Z,5.14
2022-11-24T01:08:12.036Z,5.16
2022-11-24T01:10:38.764Z,5.20
2022-11-24T01:13:06.273Z,5.16
2022-11-24T01:15:34.900Z,5.13
2022-11-24T01:18:02.450Z,4.88
2022-11-24T01:20:28.901Z,4.90
2022-11-24T01:22:56.305Z,4.92
2022-11-24T01:25:22.652Z,4.87
2022-11-24T01:27:48.967Z,4.99
2022-11-24T01:30:15.332Z,4.89
2022-11-24T01:32:41.666Z,4.94
2022-11-24T01:35:08.369Z,4.95
2022-11-24T01:37:37.804Z,4.94
2022-11-24T01:40:04.548Z,4.83
2022-11-24T01:42:39.605Z,4.94
2022-11-24T01:45:24.701Z,5.12
2022-11-24T01:47:52.161Z,5.05
2022-11-24T01:50:18.876Z,5.16
2022-11-24T01:52:48.419Z,5.04
2022-11-24T01:55:18.899Z,5.24
2022-11-24T01:57:49.822Z,4.94
2022-11-24T02:00:17.002Z,5.13
2022-11-24T02:02:44.464Z,5.21
2022-11-24T02:05:13.746Z,5.18
2022-11-24T02:07:40.230Z,5.26
2022-11-24T02:10:09.302Z,5.29
2022-11-24T02:12:36.986Z,5.32
2022-11-24T02:15:03.821Z,5.31
2022-11-24T02:17:30.146Z,5.32
2022-11-24T02:19:56.546Z,5.37
2022-11-24T02:22:29.330Z,5.31
2022-11-24T02:25:15.921Z,5.35
2022-11-24T02:27:43.475Z,5.39
2022-11-24T02:30:09.937Z,5.50
2022-11-24T02:32:39.320Z,5.56
2022-11-24T02:35:07.546Z,5.54
2022-11-24T02:37:39.893Z,5.43
2022-11-24T02:40:06.560Z,5.52
2022-11-24T02:42:36.189Z,5.50
2022-11-24T02:45:02.752Z,5.54
2022-11-24T02:47:29.082Z,5.48
2022-11-24T02:49:55.422Z,5.53
2022-11-24T02:52:21.744Z,5.50
2022-11-24T02:54:48.055Z,5.49
2022-11-24T02:57:14.988Z,5.56
2022-11-24T02:59:41.324Z,5.63
2022-11-24T03:02:07.746Z,5.59
2022-11-24T03:04:34.288Z,5.67
2022-11-24T03:07:00.736Z,5.71
2022-11-24T03:09:27.391Z,5.71
2022-11-24T03:11:53.712Z,5.74
2022-11-24T03:14:20.136Z,5.74
2022-11-24T03:16:46.448Z,5.58
2022-11-24T03:19:12.807Z,5.73
2022-11-24T03:21:40.204Z,5.77
2022-11-24T03:24:06.513Z,5.74
2022-11-24T03:26:33.768Z,5.74
2022-11-24T03:29:00.089Z,5.78
2022-11-24T03:31:26.571Z,5.79
2022-11-24T03:33:52.993Z,5.75
2022-11-24T03:36:19.347Z,5.84
2022-11-24T03:38:46.861Z,5.88
2022-11-24T03:41:13.228Z,5.86
2022-11-24T03:43:43.651Z,5.84
2022-11-24T03:46:10.546Z,5.94
2022-11-24T03:48:37.977Z,5.93
2022-11-24T03:51:04.428Z,6.05
2022-11-24T03:53:31.349Z,6.07
2022-11-24T03:55:58.042Z,6.03
2022-11-24T03:58:25.021Z,6.05
2022-11-24T04:00:52.439Z,6.10
2022-11-24T04:03:19.174Z,6.13
2022-11-24T04:05:45.814Z,6.14
2022-11-24T04:08:12.759Z,6.19
2022-11-24T04:10:39.693Z,6.15
2022-11-24T04:13:16.747Z,6.20
2022-11-24T04:15:44.557Z,6.21
2022-11-24T04:18:11.647Z,6.20
2022-11-24T04:20:38.412Z,6.20
2022-11-24T04:23:05.026Z,6.25
2022-11-24T04:25:31.487Z,6.28
2022-11-24T04:27:58.919Z,6.32
2022-11-24T04:30:26.098Z,6.30
2022-11-24T04:32:53.565Z,6.28
2022-11-24T04:35:20.255Z,6.33
2022-11-24T04:37:46.889Z,6.36
2022-11-24T04:40:13.607Z,6.32
2022-11-24T04:42:40.035Z,6.45
2022-11-24T04:45:07.405Z,6.50
2022-11-24T04:47:33.764Z,6.42
2022-11-24T04:50:00.419Z,6.42
2022-11-24T04:52:26.924Z,6.44
2022-11-24T04:54:53.630Z,6.43
2022-11-24T04:57:24.216Z,6.40
2022-11-24T04:59:51.068Z,6.38
2022-11-24T05:02:17.436Z,6.42
2022-11-24T05:04:44.180Z,6.42
2022-11-24T05:07:19.146Z,6.46
2022-11-24T05:10:04.599Z,6.48
2022-11-24T05:12:31.473Z,6.38
2022-11-24T05:15:01.618Z,6.34
2022-11-24T05:17:29.063Z,6.50
2022-11-24T05:19:55.397Z,6.46
2022-11-24T05:22:21.731Z,6.45
2022-11-24T05:24:48.053Z,6.42
2022-11-24T05:27:14.389Z,6.45
2022-11-24T05:29:40.708Z,6.48
2022-11-24T05:32:07.410Z,6.49
2022-11-24T05:34:34.068Z,6.54
2022-11-24T05:37:03.310Z,6.38
2022-11-24T05:39:33.503Z,6.54
2022-11-24T05:41:59.923Z,6.56
2022-11-24T05:44:26.245Z,6.64
2022-11-24T05:46:52.746Z,6.67
2022-11-24T05:49:19.170Z,6.71
2022-11-24T05:51:45.506Z,6.72
2022-11-24T05:54:13.042Z,6.72
2022-11-24T05:56:39.411Z,6.51
2022-11-24T05:59:09.771Z,6.67
2022-11-24T06:01:36.459Z,6.74
2022-11-24T06:04:02.894Z,6.67
2022-11-24T06:06:31.209Z,6.76
2022-11-24T06:08:57.576Z,6.75
2022-11-24T06:11:27.063Z,6.83
2022-11-24T06:13:53.446Z,6.86
2022-11-24T06:16:21.252Z,6.78
2022-11-24T06:18:47.575Z,6.76
2022-11-24T06:21:13.923Z,6.76
2022-11-24T06:23:40.331Z,6.83
2022-11-24T06:26:06.865Z,6.89
2022-11-24T06:28:39.140Z,6.87
2022-11-24T06:31:06.055Z,6.79
2022-11-24T06:33:36.178Z,6.78
2022-11-24T06:36:04.638Z,6.77
2022-11-24T06:38:31.285Z,6.70
2022-11-24T06:41:06.335Z,6.71
2022-11-24T06:43:33.420Z,6.73
2022-11-24T06:46:01.073Z,6.84
2022-11-24T06:48:28.062Z,6.84
2022-11-24T06:50:58.137Z,6.83
2022-11-24T06:53:24.469Z,6.90
2022-11-24T06:55:51.169Z,6.88
2022-11-24T06:58:17.469Z,6.93
2022-11-24T07:00:44.007Z,6.95
2022-11-24T07:03:15.369Z,6.86
2022-11-24T07:05:41.863Z,6.93
2022-11-24T07:08:09.320Z,6.93
2022-11-24T07:10:38.602Z,6.91
2022-11-24T07:13:10.574Z,6.98
2022-11-24T07:15:37.416Z,7.05
2022-11-24T07:18:04.311Z,7.01
2022-11-24T07:20:30.654Z,6.99
2022-11-24T07:22:57.911Z,7.03
2022-11-24T07:25:24.691Z,7.04
2022-11-24T07:27:55.723Z,7.11
2022-11-24T07:30:22.051Z,7.17
2022-11-24T07:32:48.385Z,7.11
2022-11-24T07:35:14.824Z,7.07
2022-11-24T07:37:41.136Z,7.22
2022-11-24T07:40:08.136Z,7.20
2022-11-24T07:42:34.485Z,7.17
2022-11-24T07:45:00.961Z,7.01
2022-11-24T07:47:28.407Z,7.12
2022-11-24T07:49:54.724Z,7.18
2022-11-24T07:52:21.101Z,7.09
2022-11-24T07:54:49.525Z,7.11
2022-11-24T07:57:15.860Z,7.29
2022-11-24T07:59:42.303Z,7.22
2022-11-24T08:02:10.045Z,7.12
2022-11-24T08:04:37.005Z,7.06
2022-11-24T08:07:03.475Z,7.13
2022-11-24T08:09:29.958Z,7.58
2022-11-24T08:11:56.274Z,7.56
2022-11-24T08:14:23.736Z,7.49
2022-11-24T08:16:50.182Z,7.39
2022-11-24T08:19:16.554Z,7.39
2022-11-24T08:21:48.816Z,7.16
2022-11-24T08:24:16.280Z,7.09
2022-11-24T08:26:42.845Z,7.41
2022-11-24T08:29:09.739Z,7.28
2022-11-24T08:31:38.101Z,7.42
2022-11-24T08:34:05.430Z,7.38
2022-11-24T08:36:32.416Z,7.45
2022-11-24T08:39:00.246Z,7.47
2022-11-24T08:41:27.070Z,7.60
2022-11-24T08:43:54.207Z,7.97
2022-11-24T08:46:20.779Z,7.95
2022-11-24T08:48:48.398Z,7.92
2022-11-24T08:51:16.121Z,7.85
2022-11-24T08:53:43.453Z,7.69
2022-11-24T08:56:15.844Z,7.73
2022-11-24T08:58:42.677Z,7.88
2022-11-24T09:01:11.548Z,7.99
2022-11-24T09:03:38.372Z,8.38
2022-11-24T09:06:05.462Z,8.28
2022-11-24T09:08:32.480Z,8.04
2022-11-24T09:10:59.501Z,7.81
2022-11-24T09:13:26.880Z,7.91
2022-11-24T09:15:53.407Z,7.92
2022-11-24T09:18:19.740Z,7.91
2022-11-24T09:20:48.145Z,7.81
2022-11-24T09:23:14.732Z,7.96
2022-11-24T09:25:43.068Z,8.32
2022-11-24T09:28:09.406Z,8.37
2022-11-24T09:30:36.824Z,8.17
2022-11-24T09:33:03.379Z,7.96
2022-11-24T09:35:29.772Z,7.97
2022-11-24T09:37:56.231Z,7.81
2022-11-24T09:40:22.884Z,7.92
2022-11-24T09:43:03.303Z,7.98
2022-11-24T09:46:04.622Z,8.11
2022-11-24T09:48:38.999Z,8.06
2022-11-24T09:51:05.800Z,7.90
2022-11-24T09:53:53.397Z,7.83
2022-11-24T09:56:21.438Z,8.04
2022-11-24T09:58:48.423Z,8.21
2022-11-24T10:01:18.906Z,8.19
2022-11-24T10:03:49.127Z,8.19
2022-11-24T10:06:26.343Z,8.01
2022-11-24T10:08:52.644Z,8.09
2022-11-24T10:11:26.231Z,8.38
2022-11-24T10:13:58.732Z,8.40
2022-11-24T10:16:43.922Z,8.44
2022-11-24T10:19:14.378Z,8.65
2022-11-24T10:21:40.694Z,8.51
2022-11-24T10:24:18.951Z,8.50
2022-11-24T10:26:51.142Z,8.41
2022-11-24T10:29:24.696Z,8.29
2022-11-24T10:31:56.042Z,8.20
2022-11-24T10:34:27.195Z,7.98
2022-11-24T10:37:17.134Z,8.07
2022-11-24T10:39:53.766Z,8.06
2022-11-24T10:42:22.200Z,8.25
2022-11-24T10:44:59.164Z,8.22
2022-11-24T10:47:25.818Z,8.16
2022-11-24T10:49:55.383Z,8.27
2022-11-24T10:52:22.387Z,8.08
2022-11-24T10:54:55.002Z,8.06
2022-11-24T10:57:40.300Z,7.93
2022-11-24T11:00:15.754Z,7.93
2022-11-24T11:02:42.269Z,7.89
2022-11-24T11:05:27.296Z,7.78
2022-11-24T11:08:10.732Z,7.84
2022-11-24T11:10:37.351Z,8.07
2022-11-24T11:13:22.816Z,7.85
2022-11-24T11:15:49.241Z,8.21
2022-11-24T11:18:19.357Z,8.02
2022-11-24T11:20:56.602Z,8.00
2022-11-24T11:23:26.430Z,8.14
2022-11-24T11:26:12.698Z,8.13
2022-11-24T11:28:39.034Z,7.97
2022-11-24T11:31:21.316Z,8.06
2022-11-24T11:34:03.867Z,7.88
2022-11-24T11:36:32.947Z,7.71
2022-11-24T11:38:59.588Z,7.97
2022-11-24T11:41:29.654Z,7.97
2022-11-24T11:44:10.755Z,7.84
2022-11-24T11:46:37.279Z,7.76
2022-11-24T11:49:06.662Z,7.83
2022-11-24T11:51:35.895Z,7.79
2022-11-24T11:54:09.326Z,7.77
2022-11-24T11:56:45.091Z,7.95
2022-11-24T11:59:26.593Z,7.95
2022-11-24T12:02:18.851Z,8.10
2022-11-24T12:04:48.476Z,8.20
2022-11-24T12:07:31.348Z,8.09
2022-11-24T12:10:16.595Z,7.82
2022-11-24T12:12:45.691Z,8.08
2022-11-24T12:15:30.899Z,8.07
2022-11-24T12:18:06.518Z,7.83
2022-11-24T12:20:59.918Z,7.72
2022-11-24T12:23:29.312Z,7.97
2022-11-24T12:26:01.231Z,8.17
2022-11-24T12:28:39.789Z,8.01
2022-11-24T12:31:07.359Z,7.97
2022-11-24T12:33:50.578Z,7.95
2022-11-24T12:36:21.806Z,7.96
2022-11-24T12:38:51.198Z,7.98
2022-11-24T12:41:43.463Z,7.94
2022-11-24T12:44:17.296Z,7.91
2022-11-24T12:46:59.252Z,7.86
2022-11-24T12:49:44.341Z,7.69
2022-11-24T12:52:23.603Z,7.45
2022-11-24T12:54:49.934Z,7.35
2022-11-24T12:57:37.187Z,7.66
2022-11-24T13:00:07.844Z,7.49
2022-11-24T13:02:43.654Z,7.47
2022-11-24T13:05:29.159Z,7.64
2022-11-24T13:08:00.299Z,7.56
2022-11-24T13:10:55.463Z,7.75
2022-11-24T13:13:26.233Z,7.52
2022-11-24T13:16:13.187Z,7.61
2022-11-24T13:18:42.092Z,7.43
2022-11-24T13:21:27.220Z,7.56
2022-11-24T13:23:57.531Z,7.59
2022-11-24T13:26:50.151Z,7.54
2022-11-24T13:29:30.907Z,7.68
2022-11-24T13:32:03.228Z,7.60
2022-11-24T13:34:38.637Z,7.61
2022-11-24T13:37:33.877Z,7.38
2022-11-24T13:40:11.596Z,7.75
2022-11-24T13:43:03.134Z,7.81
2022-11-24T13:45:41.712Z,7.94
2022-11-24T13:48:20.864Z,7.96
2022-11-24T13:50:50.656Z,7.88
2022-11-24T13:53:17.299Z,8.00
2022-11-24T13:55:54.631Z,7.80
2022-11-24T13:58:21.092Z,7.98
2022-11-24T14:00:58.443Z,8.06
2022-11-24T14:04:27.951Z,7.92
2022-11-24T14:06:43.569Z,7.91
2022-11-24T14:09:27.191Z,7.84
2022-11-24T14:12:12.355Z,7.84
2022-11-24T14:14:39.062Z,7.88
2022-11-24T14:17:27.566Z,7.83
2022-11-24T14:19:58.009Z,7.75
2022-11-24T14:22:29.069Z,7.85
2022-11-24T14:24:57.376Z,7.79
2022-11-24T14:27:27.408Z,7.75
2022-11-24T14:29:58.131Z,7.85
2022-11-24T14:32:25.618Z,7.65
2022-11-24T14:34:54.653Z,7.76
2022-11-24T14:37:21.320Z,7.73
2022-11-24T14:39:47.759Z,7.57
2022-11-24T14:42:18.259Z,7.69
2022-11-24T14:44:54.666Z,7.51
2022-11-24T14:47:24.513Z,7.58
2022-11-24T14:49:54.505Z,7.56
2022-11-24T14:52:21.950Z,7.53
2022-11-24T14:55:07.557Z,7.45
2022-11-24T14:57:44.495Z,7.51
2022-11-24T15:00:13.850Z,7.54
2022-11-24T15:02:44.663Z,7.50
2022-11-24T15:05:11.212Z,7.46
2022-11-24T15:07:39.363Z,7.35
2022-11-24T15:10:17.005Z,7.29
2022-11-24T15:12:49.623Z,7.36
2022-11-24T15:15:18.246Z,7.32
2022-11-24T15:17:52.237Z,7.32
2022-11-24T15:20:36.106Z,7.35
2022-11-24T15:23:22.351Z,7.38
2022-11-24T15:25:52.858Z,7.41
2022-11-24T15:28:28.223Z,7.42
2022-11-24T15:30:57.134Z,7.35
2022-11-24T15:33:23.967Z,7.31
2022-11-24T15:35:50.590Z,7.40
2022-11-24T15:38:17.211Z,7.43
2022-11-24T15:40:44.886Z,7.35
2022-11-24T15:43:24.001Z,7.35
2022-11-24T15:45:53.901Z,7.40
2022-11-24T15:48:22.061Z,7.43
2022-11-24T15:50:48.533Z,7.28
2022-11-24T15:53:25.790Z,7.25
2022-11-24T15:55:57.286Z,7.10
2022-11-24T15:58:23.747Z,7.13
2022-11-24T16:00:53.458Z,7.21
2022-11-24T16:03:49.761Z,7.16
2022-11-24T16:06:12.804Z,7.23
2022-11-24T16:08:39.384Z,7.30
2022-11-24T16:11:06.033Z,7.35
2022-11-24T16:13:32.679Z,7.33
2022-11-24T16:15:59.685Z,7.34
2022-11-24T16:18:27.327Z,7.34
2022-11-24T16:20:56.254Z,7.33
2022-11-24T16:23:22.807Z,7.37
2022-11-24T16:25:50.469Z,7.29
2022-11-24T16:28:24.902Z,7.32
2022-11-24T16:30:52.040Z,7.26
2022-11-24T16:33:20.801Z,7.32
2022-11-24T16:35:49.099Z,7.29
2022-11-24T16:38:19.286Z,7.30
2022-11-24T16:40:50.272Z,7.39
2022-11-24T16:43:16.606Z,7.21
2022-11-24T16:45:45.549Z,7.22
2022-11-24T16:48:13.284Z,7.20
2022-11-24T16:50:39.721Z,7.25
2022-11-24T16:53:06.151Z,7.38
2022-11-24T16:55:32.584Z,7.16
2022-11-24T16:58:02.676Z,7.02
2022-11-24T17:00:29.141Z,7.14
2022-11-24T17:02:55.714Z,7.05
2022-11-24T17:05:23.146Z,7.15
2022-11-24T17:07:50.035Z,7.04
2022-11-24T17:10:16.481Z,6.95
2022-11-24T17:12:43.592Z,6.98
2022-11-24T17:15:31.952Z,7.02
2022-11-24T17:18:22.947Z,7.01
2022-11-24T17:20:42.946Z,6.98
2022-11-24T17:23:09.398Z,6.70
2022-11-24T17:25:35.712Z,6.85
2022-11-24T17:28:02.036Z,6.81
2022-11-24T17:30:28.403Z,6.73
2022-11-24T17:32:56.992Z,6.64
2022-11-24T17:35:23.627Z,6.72
2022-11-24T17:37:50.960Z,6.95
2022-11-24T17:40:34.289Z,6.84
2022-11-24T17:43:01.314Z,6.87
2022-11-24T17:45:28.485Z,6.85
2022-11-24T17:47:56.121Z,6.84
2022-11-24T17:50:25.650Z,6.87
2022-11-24T17:52:52.822Z,6.78
2022-11-24T17:55:19.149Z,6.87
2022-11-24T17:57:45.596Z,6.83
2022-11-24T18:00:12.266Z,6.82
2022-11-24T18:02:38.862Z,6.87
2022-11-24T18:05:05.518Z,6.83
2022-11-24T18:07:32.026Z,6.80
2022-11-24T18:09:58.399Z,6.80
2022-11-24T18:12:25.751Z,6.78
2022-11-24T18:14:52.228Z,6.85
2022-11-24T18:17:18.559Z,6.81
2022-11-24T18:19:44.889Z,6.82
2022-11-24T18:22:11.212Z,6.76
2022-11-24T18:24:37.743Z,6.72
2022-11-24T18:27:04.395Z,6.65
2022-11-24T18:29:31.668Z,6.65
2022-11-24T18:32:05.200Z,6.63
2022-11-24T18:34:34.099Z,6.62
2022-11-24T18:37:00.949Z,6.70
2022-11-24T18:39:28.441Z,6.73
2022-11-24T18:41:54.813Z,6.62
2022-11-24T18:44:21.234Z,6.60
2022-11-24T18:46:48.513Z,6.67
2022-11-24T18:49:14.824Z,6.57
2022-11-24T18:51:42.159Z,6.67
2022-11-24T18:54:09.597Z,6.59
2022-11-24T18:56:35.903Z,6.55
2022-11-24T18:59:02.680Z,6.55
2022-11-24T19:01:29.531Z,6.53
2022-11-24T19:03:57.746Z,6.52
2022-11-24T19:06:24.384Z,6.46
2022-11-24T19:08:59.225Z,6.38
2022-11-24T19:11:28.138Z,6.36
2022-11-24T19:13:55.206Z,6.36
2022-11-24T19:16:21.899Z,6.33
2022-11-24T19:18:53.897Z,6.34
2022-11-24T19:21:21.143Z,6.30
2022-11-24T19:23:47.622Z,6.29
2022-11-24T19:26:13.940Z,6.36
2022-11-24T19:28:40.418Z,6.43
2022-11-24T19:31:08.230Z,6.50
2022-11-24T19:33:35.639Z,6.42
2022-11-24T19:36:12.356Z,6.51
2022-11-24T19:38:38.866Z,6.53
2022-11-24T19:41:10.062Z,6.56
2022-11-24T19:43:36.838Z,6.62
2022-11-24T19:46:04.482Z,6.67
2022-11-24T19:48:33.004Z,6.63
2022-11-24T19:51:00.172Z,6.58
2022-11-24T19:53:26.662Z,6.52
2022-11-24T19:55:53.986Z,6.46
2022-11-24T19:58:20.457Z,6.44
2022-11-24T20:00:53.115Z,6.43
2022-11-24T20:03:19.482Z,6.41
2022-11-24T20:05:53.992Z,6.42
2022-11-24T20:08:21.315Z,6.41
2022-11-24T20:10:49.663Z,6.43
2022-11-24T20:13:16.059Z,6.35
2022-11-24T20:15:42.378Z,6.34
2022-11-24T20:18:08.694Z,6.41
2022-11-24T20:20:36.286Z,6.30
2022-11-24T20:23:04.044Z,6.35
2022-11-24T20:25:30.435Z,6.33
2022-11-24T20:27:57.238Z,6.20
2022-11-24T20:30:25.665Z,6.17
2022-11-24T20:32:52.524Z,6.19
2022-11-24T20:35:21.401Z,6.21
2022-11-24T20:37:48.170Z,6.19
2022-11-24T20:40:21.534Z,6.27
2022-11-24T20:42:48.153Z,6.29
2022-11-24T20:45:14.717Z,6.34
2022-11-24T20:47:41.046Z,6.35
2022-11-24T20:50:07.519Z,6.35
2022-11-24T20:52:33.853Z,6.39
2022-11-24T20:55:03.731Z,6.43
2022-11-24T20:57:30.056Z,6.40
2022-11-24T20:59:56.373Z,6.43
2022-11-24T21:02:22.799Z,6.47
2022-11-24T21:04:51.437Z,6.46
2022-11-24T21:07:20.412Z,6.46
2022-11-24T21:09:47.217Z,6.45
2022-11-24T21:12:14.960Z,6.39
2022-11-24T21:14:41.750Z,6.36
2022-11-24T21:17:08.233Z,6.35
2022-11-24T21:19:34.790Z,6.26
2022-11-24T21:22:01.594Z,6.26
2022-11-24T21:24:33.596Z,6.30
2022-11-24T21:27:00.120Z,6.24
2022-11-24T21:29:27.563Z,6.20
2022-11-24T21:31:53.908Z,6.18
2022-11-24T21:34:20.243Z,6.22
2022-11-24T21:36:47.254Z,6.25
2022-11-24T21:39:14.637Z,6.29
2022-11-24T21:41:41.614Z,6.22
2022-11-24T21:44:08.108Z,6.18
2022-11-24T21:46:40.484Z,6.13
2022-11-24T21:49:11.009Z,6.18
2022-11-24T21:51:37.872Z,6.23
2022-11-24T21:54:04.709Z,6.22
2022-11-24T21:56:31.500Z,6.13
2022-11-24T21:59:01.021Z,6.17
2022-11-24T22:01:28.466Z,6.21
2022-11-24T22:03:55.394Z,6.27
2022-11-24T22:06:22.186Z,6.27
2022-11-24T22:08:48.875Z,6.18
2022-11-24T22:11:17.761Z,6.23
2022-11-24T22:13:44.201Z,6.19
2022-11-24T22:16:12.040Z,6.24
2022-11-24T22:18:40.223Z,6.23
2022-11-24T22:21:07.925Z,6.18
2022-11-24T22:23:37.399Z,6.09
2022-11-24T22:26:23.783Z,6.13
2022-11-24T22:28:51.059Z,6.17
2022-11-24T22:31:19.286Z,6.19
2022-11-24T22:33:46.353Z,6.19
2022-11-24T22:36:13.725Z,6.22
2022-11-24T22:38:40.551Z,6.13
2022-11-24T22:41:08.215Z,6.03
2022-11-24T22:43:35.287Z,6.07
2022-11-24T22:46:06.056Z,6.01
2022-11-24T22:48:32.675Z,6.03
2022-11-24T22:51:02.850Z,6.01
2022-11-24T22:53:29.522Z,5.86
2022-11-24T22:55:55.920Z,5.65
2022-11-24T22:58:22.248Z,5.65
2022-11-24T23:00:48.724Z,5.49
2022-11-24T23:03:15.112Z,5.36
2022-11-24T23:05:41.512Z,5.32
2022-11-24T23:08:07.875Z,5.25
2022-11-24T23:10:34.580Z,5.20
2022-11-24T23:13:07.899Z,5.20
2022-11-24T23:15:34.240Z,5.17
2022-11-24T23:18:01.022Z,5.11
2022-11-24T23:20:27.341Z,5.09
2022-11-24T23:22:55.361Z,4.99
2022-11-24T23:25:22.068Z,5.05
2022-11-24T23:27:48.493Z,5.09
2022-11-24T23:30:15.069Z,5.09
2022-11-24T23:32:41.461Z,5.03
2022-11-24T23:35:13.456Z,5.04
2022-11-24T23:38:06.089Z,4.90
2022-11-24T23:40:28.240Z,4.88
2022-11-24T23:42:55.198Z,4.94
2022-11-24T23:45:21.602Z,4.78
2022-11-24T23:47:48.034Z,4.64
2022-11-24T23:50:14.416Z,4.65
2022-11-24T23:52:40.742Z,4.62
2022-11-24T23:55:07.303Z,4.55
2022-11-24T23:57:34.642Z,4.49
